Terminal Aerodrome Forecast
Issued by NWS Charleston, WV

Current Version | Previous Version | Graphics & Text | Print | Product List | Glossary Off
Versions: 1 2 3 4 5 6 7 8 9 10 11 12 13 14 15 16 17 18 19 20 21 22 23 24

000
FTUS41 KRLX 251100
TAFBKW
TAF
KBKW 251138Z 2512/2612 VRB03KT 6SM BR OVC006
     FM251300 VRB03KT P6SM BKN012
      TEMPO 2513/2515 SCT020
     FM251500 VRB03KT P6SM SCT025
     FM251900 VRB03KT P6SM SCT035
     FM252300 VRB03KT P6SM SCT250=

USA.gov is the U.S. government's official web portal to all federal, state and local government web resources and services.